Sequel — WDB9234 — position and weather

sailwx.info

Track history (hours):
 
Tides and Currents Weather Stations Pressure Air Temp Water Temp Dewpoint Dewpoint Depression Visibility Wind Speed Wind Dir Waves Ship Positions

Sequel

Owner: Cannon, Jeffrey D, Ventura,, CA. More information available from US FCC via Universal Licensing System and Coast Guard Vessel Documentation Center.

Last reported at 2016-Aug-21 20:31 UTC. Time now 2016-Aug-31 06:07 UTC.
Position N 37°52' W 122°28'.
Warning: this ship's position is 9 days out of date.

Length 14 m.

Type: Pleasure craft. MMSI: 366972180.

Date/timePositionNaut miles runAvg speedWind from/ knotsBaromVisibWave heightAir tempDewpointWater temp
2016-Aug-21 20:31N 37°52' W 122°28'10 1.8
2016-Aug-21 15:10N 37°52' W 122°40'1015.6
2016-Aug-21 14:33N 37°51' W 122°28'  
2016-Aug-18 02:27N 37°52' W 122°29'  
2016-Aug-15 14:27N 37°52' W 122°28'0 0.0
2016-Aug-15 13:32N 37°52' W 122°28'0 0.0
2016-Aug-15 10:32N 37°52' W 122°28'0 0.0
2016-Aug-15 08:17N 37°52' W 122°28'0 0.0
2016-Aug-15 07:14N 37°52' W 122°28'1 0.1
2016-Aug-14 21:30N 37°51' W 122°27'3 1.5
2016-Aug-14 19:32N 37°48' W 122°27'1 1.3
2016-Aug-14 18:33N 37°50' W 122°27'2 1.6
2016-Aug-14 17:31N 37°51' W 122°28'1 1.1
2016-Aug-14 16:31N 37°52' W 122°28'  
Track history (hours):
 
Tides and Currents Weather Stations Pressure Air Temp Water Temp Dewpoint Dewpoint Depression Visibility Wind Speed Wind Dir Waves Ship Positions

Sequel

Owner: Cannon, Jeffrey D, Ventura,, CA. More information available from US FCC via Universal Licensing System and Coast Guard Vessel Documentation Center.

Last reported at 2016-Aug-21 20:31 UTC. Time now 2016-Aug-31 06:07 UTC.
Position N 37°52' W 122°28'.
Warning: this ship's position is 9 days out of date.

Length 14 m.

Type: Pleasure craft. MMSI: 366972180.

Date/timePositionNaut miles runAvg speedWind from/ knotsBaromVisibWave heightAir tempDewpointWater temp
2016-Aug-21 20:31N 37°52' W 122°28'10 1.8
2016-Aug-21 15:10N 37°52' W 122°40'1015.6
2016-Aug-21 14:33N 37°51' W 122°28'  
2016-Aug-18 02:27N 37°52' W 122°29'  
2016-Aug-15 14:27N 37°52' W 122°28'0 0.0
2016-Aug-15 13:32N 37°52' W 122°28'0 0.0
2016-Aug-15 10:32N 37°52' W 122°28'0 0.0
2016-Aug-15 08:17N 37°52' W 122°28'0 0.0
2016-Aug-15 07:14N 37°52' W 122°28'1 0.1
2016-Aug-14 21:30N 37°51' W 122°27'3 1.5
2016-Aug-14 19:32N 37°48' W 122°27'1 1.3
2016-Aug-14 18:33N 37°50' W 122°27'2 1.6
2016-Aug-14 17:31N 37°51' W 122°28'1 1.1
2016-Aug-14 16:31N 37°52' W 122°28'  

Dump ship's entire track history